MAPA DE AEROPUERTO

INFORMACIÓN METAR y TAF

METAR FOR LECO
ADDS - METARS form results

(1855 UTC 29 October 2020)
Data provider http://aviationweather.gov/metar/data/
 
METAR text: LECO 291830Z 25005KT 220V290 CAVOK 15/09 Q1024 NOSIG
Conditions at: LECO (LA CORUNA/ALVEDR, ES) observed 1830 UTC 29 October 2020
Temperature: 15.0°C (59°F)
Dewpoint: 9.0°C (48°F) [RH = 67%]
Pressure (altimeter): 30.24 inches Hg (1024.0 mb)
Winds: from the WSW (250 degrees) at 6 MPH (5 knots; 2.6 m/s)
Visibility: 6 or more miles (10+ km)
Ceiling: ceiling and visibility are OK
Clouds: unknown
Weather: no significant weather observed at this time

METAR text: LECO 291800Z 25004KT 210V310 CAVOK 15/09 Q1024 NOSIG
Conditions at: LECO (LA CORUNA/ALVEDR, ES) observed 1800 UTC 29 October 2020
Temperature: 15.0°C (59°F)
Dewpoint: 9.0°C (48°F) [RH = 67%]
Pressure (altimeter): 30.24 inches Hg (1024.0 mb)
Winds: from the WSW (250 degrees) at 5 MPH (4 knots; 2.1 m/s)
Visibility: 6 or more miles (10+ km)
Ceiling: ceiling and visibility are OK
Clouds: unknown
Weather: no significant weather observed at this time

Forecast for: LECO (LA CORUNA/ALVEDR, ES)
Text: TAF LECO 291400Z 2915/3015 20009KT 9999 SCT020 BKN030 TX20/3015Z TN09/3007Z
Forecast period: 1500 UTC 29 October 2020 to 1500 UTC 30 October 2020
Forecast type: FROM: standard forecast or significant change
Winds: from the SSW (200 degrees) at 10 MPH (9 knots; 4.6 m/s)
Visibility: 6 or more miles (10+ km)
Ceiling: 3000 feet AGL
Clouds: scattered clouds at 2000 feet AGL
broken clouds at 3000 feet AGL
Weather: no significant weather forecast for this period